Terminal Aerodrome Forecast
Issued by NWS

Home | Current Version | Previous Version | Graphics & Text | Print | Product List | Glossary On
Versions: 1 2 3 4 5 6 7 8 9 10 11 12 13 14 15 16 17 18 19 20 21 22 23 24 25
325
FTUS43 KBIS 100128 AAA
TAFJMS
TAF AMD
KJMS 100128Z 1001/1024 29016KT P6SM SKC WS020/31045KT
     FM100400 31015KT P6SM SCT250
     FM101200 31009KT P6SM BKN150=

USA.gov is the U.S. government's official web portal to all federal, state and local government web resources and services.